WMKC/KBR METAR and TAF weather

Enter ICAO airport designator
Station Type Date Time Source
WMKC METAR 2019/10/23 20:00 UTC NOAA

WMKC 232000Z VRB02KT 8000 -TSRA FEW017CB SCT020 BKN280 25/24 Q1008


Station Type Date Time Source
WMKC Decoded METAR 2019/10/23 20:00 UTC NOAA

Kota Bharu, Malaysia (WMKC) 06-10N 102-17E 5M
Oct 23, 2019 - 04:00 PM EDT / 2019.10.23 2000 UTC
Wind: Variable at 2 MPH (2 KT):0
Visibility: 4 mile(s):0
Sky conditions: mostly cloudy
Weather: light rain with thunder; Cumulonimbus clouds observed
Temperature: 77 F (25 C)
Dew Point: 75 F (24 C)
Relative Humidity: 94%
Pressure (altimeter): 29.77 in. Hg (1008 hPa)
ob: WMKC 232000Z VRB02KT 8000 -TSRA FEW017CB SCT020 BKN280 25/24 Q1008
cycle: 20

Station Type Date Time Source
WMKC TAF 2019/10/23 18:00 UTC NOAA

TAF WMKC 231700Z 2318/2418 VRB03KT 9999 FEW020
TEMPO 2318/2322 7000 -TSRA FEW017CB

Example: see airport list